Portada
METAR-TAF:

METAR-TAF

Aeropuertos :

Aeropuerto Internacional de Yamena

Yamena, Chad

latitud: 12-08N, longitud: 015-02E, altitud: 295 m

Observación

El informe se hizo hace 53 minutos, a las 13:00 UTC
Viento 11 kt del norte, variando entre norte y este
Temperatura 30°C
Humedad 14%
Presión 1013 hPa
Visibilidad: 4500 m
Polvo extendido

METAR: FTTJ 171300Z 36011KT 360V080 4500 DU NSC 30/00 Q1013 NOSIG

Hora: 14:53 (13:53 UTC)

Pronóstico

El informe se hizo hace 2 horas y 53 minutos, a las 11:00 UTC
Pronóstico válido del 17 a las 12 UTC al 18 a las 18 UTC
Viento 13 kt del norte-noroeste
Visibilidad: 3000 m
Polvo extendido
Temporalmente
del 17 a las 16 UTC al 17 a las 20 UTC
Visibilidad: 2000 m
Temporalmente
del 18 a las 05 UTC al 18 a las 08 UTC
Visibilidad: 2000 m

TAF: FTTJ 171100Z 1712/1818 34013KT 3000 DU NSC TEMPO 1716/1720 2000 TEMPO 1805/1808 2000

Observaciones y pronósticos meteorológicos de más de 4000 aeropuertos (mensajes METAR y TAF).

Los puntos amarillos y rojos representan las estaciones disponibles.

Ponga el ratón en el punto deseado para ver el nombre de la estación.

Haga clic para ver las observaciones y los pronósticos meteorológicos.

Para cambiar el mapa : haga clic en los botones verdes con una cruz de color negro para hacer un zoom, en el botón verde con un guión para alejar o en las flechas verdes para mapas adyacentes.


METAR-TAF: